createdAt,value
2023-02-26T07:18:31.999Z,97780.00
2023-02-26T07:21:00.766Z,97779.00
2023-02-26T07:23:28.193Z,97785.00
2023-02-26T07:25:56.448Z,97797.00
2023-02-26T07:28:25.024Z,97794.00
2023-02-26T07:30:56.902Z,97803.00
2023-02-26T07:33:25.064Z,97804.00
2023-02-26T07:35:52.343Z,97802.00
2023-02-26T07:38:19.903Z,97792.00
2023-02-26T07:40:47.995Z,97799.00
2023-02-26T07:43:15.296Z,97797.00
2023-02-26T07:45:42.567Z,97797.00
2023-02-26T07:48:09.864Z,97788.00
2023-02-26T07:50:37.196Z,97797.00
2023-02-26T07:53:04.531Z,97804.00
2023-02-26T07:55:31.928Z,97794.00
2023-02-26T07:57:59.196Z,97795.00
2023-02-26T08:00:26.934Z,97788.00
2023-02-26T08:02:54.357Z,97805.00
2023-02-26T08:05:21.649Z,97801.00
2023-02-26T08:07:48.913Z,97808.00
2023-02-26T08:10:16.306Z,97800.00
2023-02-26T08:12:43.594Z,97794.00
2023-02-26T08:15:14.403Z,97789.00
2023-02-26T08:17:42.354Z,97803.00
2023-02-26T08:20:12.021Z,97791.00
2023-02-26T08:22:39.637Z,97779.00
2023-02-26T08:25:07.992Z,97781.00
2023-02-26T08:27:35.348Z,97796.00
2023-02-26T08:30:05.265Z,97791.00
2023-02-26T08:32:32.582Z,97784.00
2023-02-26T08:34:59.951Z,97792.00
2023-02-26T08:37:27.313Z,97789.00
2023-02-26T08:39:54.720Z,97784.00
2023-02-26T08:42:22.010Z,97792.00
2023-02-26T08:44:49.462Z,97794.00
2023-02-26T08:47:24.542Z,97799.00
2023-02-26T08:49:55.232Z,97793.00
2023-02-26T08:52:23.185Z,97791.00
2023-02-26T08:54:50.801Z,97798.00
2023-02-26T08:57:18.475Z,97797.00
2023-02-26T08:59:45.795Z,97801.00
2023-02-26T09:02:15.970Z,97796.00
2023-02-26T09:04:43.255Z,97785.00
2023-02-26T09:07:10.686Z,97789.00
2023-02-26T09:09:37.996Z,97797.00
2023-02-26T09:12:05.841Z,97796.00
2023-02-26T09:14:33.149Z,97802.00
2023-02-26T09:17:00.495Z,97791.00
2023-02-26T09:19:27.825Z,97797.00
2023-02-26T09:21:55.941Z,97798.00
2023-02-26T09:24:23.541Z,97775.00
2023-02-26T09:26:50.891Z,97761.00
2023-02-26T09:29:18.189Z,97762.00
2023-02-26T09:31:45.652Z,97776.00
2023-02-26T09:34:13.756Z,97776.00
2023-02-26T09:36:41.257Z,97776.00
2023-02-26T09:39:08.879Z,97783.00
2023-02-26T09:41:54.630Z,97756.00
2023-02-26T09:44:30.531Z,97784.00
2023-02-26T09:47:45.592Z,97801.00
2023-02-26T09:50:28.413Z,97783.00
2023-02-26T09:53:19.569Z,97762.00
2023-02-26T09:55:50.794Z,97787.00
2023-02-26T09:58:39.273Z,97789.00
2023-02-26T10:02:10.392Z,97799.00
2023-02-26T10:05:15.137Z,97795.00
2023-02-26T10:08:14.396Z,97802.00
2023-02-26T10:11:29.311Z,97811.00
2023-02-26T10:15:13.335Z,97821.00
2023-02-26T10:18:18.190Z,97809.00
2023-02-26T10:20:57.990Z,97793.00
2023-02-26T10:24:03.853Z,97796.00
2023-02-26T10:26:50.103Z,97821.00
2023-02-26T10:29:37.776Z,97798.00
2023-02-26T10:32:43.313Z,97799.00
2023-02-26T10:35:17.791Z,97792.00
2023-02-26T10:38:18.033Z,97799.00
2023-02-26T10:41:13.410Z,97794.00
2023-02-26T10:44:33.535Z,97835.00
2023-02-26T10:47:32.487Z,97827.00
2023-02-26T10:50:17.853Z,97828.00
2023-02-26T10:52:47.641Z,97852.00
2023-02-26T10:56:01.855Z,97844.00
2023-02-26T10:58:29.196Z,97861.00
2023-02-26T11:00:57.767Z,97859.00
2023-02-26T11:03:56.481Z,97855.00
2023-02-26T11:06:45.611Z,97871.00
2023-02-26T11:09:45.454Z,97861.00
2023-02-26T11:12:15.724Z,97864.00
2023-02-26T11:14:45.598Z,97888.00
2023-02-26T11:17:32.354Z,97873.00
2023-02-26T11:20:15.352Z,97881.00
2023-02-26T11:22:53.463Z,97837.00
2023-02-26T11:25:28.002Z,97835.00
2023-02-26T11:28:30.107Z,97869.00
2023-02-26T11:31:00.622Z,97878.00
2023-02-26T11:33:38.776Z,97870.00
2023-02-26T11:36:20.076Z,97877.00
2023-02-26T11:39:04.321Z,97864.00
2023-02-26T11:41:39.536Z,97870.00
2023-02-26T11:44:32.185Z,97873.00
2023-02-26T11:47:03.163Z,97861.00
2023-02-26T11:49:30.636Z,97862.00
2023-02-26T11:52:35.854Z,97857.00
2023-02-26T11:55:40.030Z,97852.00
2023-02-26T11:58:24.215Z,97861.00
2023-02-26T12:00:58.496Z,97864.00
2023-02-26T12:03:40.946Z,97856.00
2023-02-26T12:06:21.163Z,97853.00
2023-02-26T12:08:49.091Z,97867.00
2023-02-26T12:12:22.313Z,97850.00
2023-02-26T12:15:36.247Z,97857.00
2023-02-26T12:18:51.093Z,97847.00
2023-02-26T12:22:00.710Z,97856.00
2023-02-26T12:25:09.228Z,97851.00
2023-02-26T12:28:28.746Z,97846.00
2023-02-26T12:31:54.411Z,97836.00
2023-02-26T12:35:26.517Z,97818.00
2023-02-26T12:38:35.004Z,97803.00
2023-02-26T12:41:43.062Z,97797.00
2023-02-26T12:46:06.244Z,97816.00
2023-02-26T12:49:30.394Z,97838.00
2023-02-26T12:53:00.818Z,97841.00
2023-02-26T12:56:44.825Z,97812.00
2023-02-26T13:00:16.102Z,97850.00
2023-02-26T13:03:50.182Z,97852.00
2023-02-26T13:07:24.140Z,97864.00
2023-02-26T13:10:24.284Z,97860.00
2023-02-26T13:13:24.901Z,97860.00
2023-02-26T13:17:20.799Z,97868.00
2023-02-26T13:20:00.548Z,97877.00
2023-02-26T13:22:50.136Z,97864.00
2023-02-26T13:25:50.713Z,97855.00
2023-02-26T13:28:40.136Z,97870.00
2023-02-26T13:31:53.386Z,97872.00
2023-02-26T13:35:00.966Z,97882.00
2023-02-26T13:37:42.321Z,97886.00
2023-02-26T13:40:50.193Z,97889.00
2023-02-26T13:44:27.495Z,97900.00
2023-02-26T13:47:42.799Z,97877.00
2023-02-26T13:51:22.341Z,97859.00
2023-02-26T13:54:00.820Z,97884.00
2023-02-26T13:56:34.040Z,97890.00
2023-02-26T13:59:46.859Z,97894.00
2023-02-26T14:02:19.944Z,97906.00
2023-02-26T14:05:00.228Z,97903.00
2023-02-26T14:08:01.024Z,97906.00
2023-02-26T14:10:49.741Z,97911.00
2023-02-26T14:13:42.061Z,97899.00
2023-02-26T14:16:28.821Z,97913.00
2023-02-26T14:19:33.489Z,97900.00
2023-02-26T14:22:09.373Z,97904.00
2023-02-26T14:24:44.511Z,97899.00
2023-02-26T14:27:11.548Z,97899.00
2023-02-26T14:29:57.159Z,97902.00
2023-02-26T14:33:01.454Z,97909.00
2023-02-26T14:35:35.598Z,97896.00
2023-02-26T14:38:36.509Z,97900.00
2023-02-26T14:41:30.031Z,97887.00
2023-02-26T14:44:21.823Z,97911.00
2023-02-26T14:46:51.525Z,97904.00
2023-02-26T14:49:38.398Z,97907.00
2023-02-26T14:53:03.230Z,97922.00
2023-02-26T14:56:27.125Z,97916.00
2023-02-26T15:00:10.795Z,97916.00
2023-02-26T15:03:20.991Z,97911.00
2023-02-26T15:06:34.097Z,97939.00
2023-02-26T15:09:25.640Z,97928.00
2023-02-26T15:13:03.808Z,97935.00
2023-02-26T15:16:38.139Z,97933.00
2023-02-26T15:19:46.635Z,97949.00
2023-02-26T15:23:24.999Z,97936.00
2023-02-26T15:25:52.620Z,97926.00
2023-02-26T15:28:42.065Z,97947.00
2023-02-26T15:31:13.743Z,97937.00
2023-02-26T15:33:42.473Z,97942.00
2023-02-26T15:36:18.816Z,97953.00
2023-02-26T15:39:00.140Z,97939.00
2023-02-26T15:41:31.942Z,97951.00
2023-02-26T15:44:18.923Z,97973.00
2023-02-26T15:46:54.572Z,97974.00
2023-02-26T15:49:41.021Z,97964.00
2023-02-26T15:52:20.599Z,97977.00
2023-02-26T15:55:05.806Z,97985.00
2023-02-26T15:57:33.375Z,97979.00
2023-02-26T16:00:18.042Z,97984.00
2023-02-26T16:02:45.781Z,97978.00
2023-02-26T16:05:17.021Z,97980.00
2023-02-26T16:07:44.355Z,97976.00
2023-02-26T16:10:40.639Z,97982.00
2023-02-26T16:13:18.068Z,97986.00
2023-02-26T16:15:47.458Z,97985.00
2023-02-26T16:18:24.189Z,97986.00
2023-02-26T16:20:58.963Z,97986.00
2023-02-26T16:23:50.894Z,97989.00
2023-02-26T16:26:47.023Z,97987.00
2023-02-26T16:29:29.961Z,97981.00
2023-02-26T16:32:02.308Z,97986.00
2023-02-26T16:34:55.707Z,97980.00
2023-02-26T16:37:37.773Z,97990.00
2023-02-26T16:40:35.682Z,98003.00
2023-02-26T16:43:49.506Z,98016.00
2023-02-26T16:46:43.867Z,98024.00
2023-02-26T16:49:31.615Z,98023.00
2023-02-26T16:52:00.830Z,98023.00
2023-02-26T16:54:43.154Z,98042.00
2023-02-26T16:57:46.123Z,98045.00
2023-02-26T17:00:31.603Z,98055.00
2023-02-26T17:03:23.857Z,98045.00
2023-02-26T17:06:20.395Z,98056.00
2023-02-26T17:08:59.840Z,98055.00
2023-02-26T17:11:43.456Z,98058.00
2023-02-26T17:14:25.792Z,98049.00
2023-02-26T17:16:53.499Z,98054.00
2023-02-26T17:19:21.182Z,98064.00
2023-02-26T17:21:54.775Z,98049.00
2023-02-26T17:24:34.835Z,98049.00
2023-02-26T17:27:05.487Z,98069.00
2023-02-26T17:29:37.583Z,98055.00
2023-02-26T17:32:16.027Z,98057.00
2023-02-26T17:34:44.835Z,98067.00
2023-02-26T17:37:16.717Z,98068.00
2023-02-26T17:39:45.441Z,98080.00
2023-02-26T17:42:21.436Z,98062.00
2023-02-26T17:44:50.366Z,98072.00
2023-02-26T17:47:25.862Z,98078.00
2023-02-26T17:49:54.246Z,98076.00
2023-02-26T17:52:21.642Z,98078.00
2023-02-26T17:54:49.037Z,98091.00
2023-02-26T17:57:22.082Z,98081.00
2023-02-26T17:59:49.508Z,98087.00
2023-02-26T18:02:27.216Z,98090.00
2023-02-26T18:04:54.923Z,98093.00
2023-02-26T18:07:23.971Z,98099.00
2023-02-26T18:09:51.381Z,98096.00
2023-02-26T18:12:22.435Z,98119.00
2023-02-26T18:14:50.243Z,98109.00
2023-02-26T18:17:31.124Z,98117.00
2023-02-26T18:19:58.650Z,98108.00
2023-02-26T18:22:27.661Z,98118.00
2023-02-26T18:24:55.878Z,98127.00
2023-02-26T18:27:26.316Z,98121.00
2023-02-26T18:29:54.559Z,98114.00
2023-02-26T18:32:25.376Z,98123.00
2023-02-26T18:34:52.875Z,98126.00
2023-02-26T18:37:27.055Z,98116.00
2023-02-26T18:39:55.792Z,98127.00
2023-02-26T18:42:28.430Z,98128.00
2023-02-26T18:44:56.130Z,98134.00
2023-02-26T18:47:23.684Z,98139.00
2023-02-26T18:49:52.005Z,98138.00
2023-02-26T18:52:19.642Z,98133.00
2023-02-26T18:54:46.947Z,98129.00
2023-02-26T18:57:15.254Z,98129.00
2023-02-26T18:59:42.971Z,98127.00
2023-02-26T19:02:14.034Z,98123.00
2023-02-26T19:04:42.372Z,98134.00
2023-02-26T19:07:10.139Z,98123.00
2023-02-26T19:09:37.560Z,98139.00
2023-02-26T19:12:05.795Z,98134.00
2023-02-26T19:14:33.878Z,98134.00
2023-02-26T19:17:01.485Z,98141.00
2023-02-26T19:19:29.037Z,98152.00
2023-02-26T19:21:57.761Z,98148.00
2023-02-26T19:24:25.062Z,98150.00
2023-02-26T19:26:52.500Z,98135.00
2023-02-26T19:29:20.797Z,98146.00
2023-02-26T19:31:48.305Z,98152.00
2023-02-26T19:34:16.211Z,98150.00
2023-02-26T19:36:48.147Z,98144.00
2023-02-26T19:39:21.395Z,98159.00
2023-02-26T19:41:50.452Z,98148.00
2023-02-26T19:44:18.104Z,98157.00
2023-02-26T19:46:45.533Z,98153.00
2023-02-26T19:49:13.607Z,98157.00
2023-02-26T19:51:41.435Z,98156.00
2023-02-26T19:54:09.814Z,98154.00
2023-02-26T19:56:37.283Z,98161.00
2023-02-26T19:59:04.701Z,98142.00
2023-02-26T20:01:32.301Z,98177.00
2023-02-26T20:04:00.932Z,98161.00
2023-02-26T20:06:28.850Z,98173.00
2023-02-26T20:08:56.287Z,98181.00
2023-02-26T20:11:23.669Z,98166.00
2023-02-26T20:13:51.081Z,98175.00
2023-02-26T20:16:18.504Z,98162.00
2023-02-26T20:18:45.974Z,98173.00
2023-02-26T20:21:14.118Z,98173.00
2023-02-26T20:23:41.879Z,98171.00
2023-02-26T20:26:15.080Z,98178.00
2023-02-26T20:28:43.136Z,98175.00
2023-02-26T20:31:11.568Z,98177.00
2023-02-26T20:33:39.592Z,98181.00
2023-02-26T20:36:09.611Z,98180.00
2023-02-26T20:38:37.806Z,98164.00
2023-02-26T20:41:05.912Z,98165.00
2023-02-26T20:43:33.611Z,98169.00
2023-02-26T20:46:02.190Z,98173.00
2023-02-26T20:48:29.717Z,98180.00
2023-02-26T20:51:05.871Z,98176.00
2023-02-26T20:53:33.418Z,98180.00
2023-02-26T20:56:00.991Z,98190.00
2023-02-26T20:58:28.739Z,98183.00
2023-02-26T21:00:56.955Z,98190.00
2023-02-26T21:03:25.114Z,98191.00
2023-02-26T21:05:52.816Z,98194.00
2023-02-26T21:08:20.431Z,98184.00
2023-02-26T21:10:51.992Z,98197.00
2023-02-26T21:13:19.981Z,98190.00
2023-02-26T21:15:50.204Z,98200.00
2023-02-26T21:18:17.550Z,98197.00
2023-02-26T21:20:44.847Z,98194.00
2023-02-26T21:23:12.399Z,98189.00
2023-02-26T21:25:40.107Z,98195.00
2023-02-26T21:28:07.456Z,98204.00
2023-02-26T21:30:35.863Z,98191.00
2023-02-26T21:33:03.521Z,98191.00
2023-02-26T21:35:31.017Z,98198.00
2023-02-26T21:37:58.382Z,98199.00
2023-02-26T21:40:26.618Z,98191.00
